Time;durP1;ratioP1;P1;durP2;ratioP2;P2;SDS_P1;SDS_P2;PMS_P1;PMS_P2;Temp;Humidity;BMP_temperature;BMP_pressure;BME280_temperature;BME280_humidity;BME280_pressure;Samples;Min_cycle;Max_cycle;Signal;HPM_P1;HPM_P2
2021/11/02 00:00:59;;;;;;;7.68;1.70;;;8.20;99.90;;;;;;5013790;28;20080;-74
2021/11/02 00:03:24;;;;;;;5.82;2.00;;;8.30;99.90;;;;;;5014122;28;20034;-74
2021/11/02 00:05:51;;;;;;;3.45;1.88;;;8.20;99.90;;;;;;5014606;28;20499;-75
2021/11/02 00:08:17;;;;;;;3.25;1.50;;;8.20;99.90;;;;;;5013553;28;20014;-75
2021/11/02 00:10:42;;;;;;;3.17;1.83;;;8.30;99.90;;;;;;5013850;28;20026;-74
2021/11/02 00:13:08;;;;;;;4.70;1.83;;;8.40;99.90;;;;;;5013813;28;20034;-75
2021/11/02 00:15:36;;;;;;;3.63;1.40;;;8.40;99.90;;;;;;5013036;28;20117;-75
2021/11/02 00:18:04;;;;;;;4.40;1.42;;;8.50;99.90;;;;;;5014741;28;20053;-75
2021/11/02 00:20:31;;;;;;;3.38;1.40;;;8.60;99.90;;;;;;5014266;28;20057;-75
2021/11/02 00:22:59;;;;;;;1.95;1.40;;;8.50;99.90;;;;;;5013671;28;20022;-75
2021/11/02 00:25:28;;;;;;;4.30;1.60;;;8.60;99.90;;;;;;5012844;28;20061;-75
2021/11/02 00:27:55;;;;;;;3.92;1.38;;;8.60;99.90;;;;;;5013394;28;20030;-75
2021/11/02 00:30:22;;;;;;;2.85;1.50;;;8.60;99.90;;;;;;5012688;28;20356;-76
2021/11/02 00:32:50;;;;;;;3.35;1.42;;;8.70;99.90;;;;;;5013197;28;20025;-74
2021/11/02 00:35:17;;;;;;;4.68;1.45;;;8.70;99.90;;;;;;5013300;28;20443;-74
2021/11/02 00:37:43;;;;;;;4.80;1.90;;;8.70;99.90;;;;;;5014063;28;20036;-74
2021/11/02 00:40:10;;;;;;;2.63;1.27;;;8.70;99.90;;;;;;5013175;28;20026;-74
2021/11/02 00:42:41;;;;;;;2.47;1.33;;;8.60;99.90;;;;;;5013922;28;20026;-74
2021/11/02 00:45:12;;;;;;;2.65;1.45;;;8.60;99.90;;;;;;5014364;28;20143;-74
2021/11/02 00:47:38;;;;;;;2.25;1.10;;;8.60;99.90;;;;;;5012531;28;20072;-74
2021/11/02 00:50:09;;;;;;;3.45;1.50;;;8.60;99.90;;;;;;5014199;28;20022;-73
2021/11/02 00:52:37;;;;;;;3.83;1.40;;;8.60;99.90;;;;;;5013654;28;20030;-74
2021/11/02 00:55:05;;;;;;;2.28;1.10;;;8.70;99.90;;;;;;5012913;28;20360;-73
2021/11/02 00:57:31;;;;;;;3.15;1.50;;;8.70;99.90;;;;;;5013628;28;20137;-73
2021/11/02 00:59:56;;;;;;;2.13;1.20;;;8.70;99.90;;;;;;5012804;28;20132;-74
2021/11/02 01:02:22;;;;;;;2.15;0.95;;;8.70;99.90;;;;;;5014017;28;20382;-74
2021/11/02 01:04:48;;;;;;;2.80;1.20;;;8.80;99.90;;;;;;5012166;28;20026;-73
2021/11/02 01:07:15;;;;;;;1.92;1.35;;;8.80;99.90;;;;;;5012581;28;20521;-74
2021/11/02 01:09:42;;;;;;;1.85;1.10;;;8.90;99.90;;;;;;5013321;28;20455;-74
2021/11/02 01:12:08;;;;;;;1.50;1.13;;;8.90;99.90;;;;;;5012663;28;20030;-74
2021/11/02 01:14:34;;;;;;;2.63;1.40;;;9.00;99.90;;;;;;5012994;28;20030;-74
2021/11/02 01:17:00;;;;;;;4.28;1.20;;;9.00;99.90;;;;;;5012423;28;20362;-74
2021/11/02 01:19:26;;;;;;;4.05;1.30;;;9.00;99.90;;;;;;5011900;28;20029;-74
2021/11/02 01:21:51;;;;;;;4.53;1.15;;;9.00;99.90;;;;;;5013561;28;20030;-74
2021/11/02 01:24:17;;;;;;;2.30;1.15;;;9.00;99.90;;;;;;5012406;28;20116;-74
2021/11/02 01:26:43;;;;;;;3.92;1.02;;;9.00;99.90;;;;;;5011750;28;20026;-74
2021/11/02 01:29:09;;;;;;;4.40;1.27;;;9.00;99.90;;;;;;5012259;28;20030;-73
2021/11/02 01:31:35;;;;;;;3.10;0.95;;;9.00;99.90;;;;;;5013037;28;20033;-74
2021/11/02 01:34:02;;;;;;;2.85;1.10;;;9.10;99.90;;;;;;5012185;28;20410;-74
2021/11/02 01:36:28;;;;;;;4.32;1.20;;;9.10;99.90;;;;;;5011534;28;20018;-74
2021/11/02 01:38:54;;;;;;;3.13;1.20;;;9.10;99.90;;;;;;5013411;28;20045;-74
2021/11/02 01:41:22;;;;;;;3.22;1.15;;;9.10;99.90;;;;;;5011783;28;20482;-74
2021/11/02 01:43:48;;;;;;;2.08;1.58;;;9.10;99.90;;;;;;5011636;28;20022;-74
2021/11/02 01:46:26;;;;;;;2.65;0.98;;;9.20;99.90;;;;;;5013440;28;20018;-74
2021/11/02 01:48:53;;;;;;;3.33;1.02;;;9.20;99.90;;;;;;5013327;28;20026;-74
2021/11/02 01:51:21;;;;;;;3.45;1.00;;;9.20;99.90;;;;;;5011889;28;20030;-74
2021/11/02 01:53:47;;;;;;;4.22;1.63;;;9.20;99.90;;;;;;5011467;28;20080;-74
2021/11/02 01:56:13;;;;;;;2.38;1.20;;;9.20;99.90;;;;;;5013274;28;20022;-74
2021/11/02 01:58:39;;;;;;;3.35;1.30;;;9.20;99.90;;;;;;5012630;28;20146;-74
2021/11/02 02:01:09;;;;;;;2.97;0.88;;;9.20;99.90;;;;;;5011579;28;20026;-74
2021/11/02 02:03:37;;;;;;;4.68;1.08;;;9.20;99.90;;;;;;5011334;28;20053;-74
2021/11/02 02:06:24;;;;;;;4.78;1.40;;;9.30;99.90;;;;;;5012118;28;20026;-73
2021/11/02 02:09:17;;;;;;;3.42;1.10;;;9.30;99.90;;;;;;5011458;28;20050;-74
2021/11/02 02:12:05;;;;;;;2.38;0.90;;;9.30;99.90;;;;;;5010894;28;20030;-74
2021/11/02 02:14:50;;;;;;;2.83;0.98;;;9.30;99.90;;;;;;5011328;28;20064;-74
2021/11/02 02:17:20;;;;;;;2.80;1.08;;;9.30;99.90;;;;;;5013015;28;20032;-73
2021/11/02 02:19:46;;;;;;;4.10;1.00;;;9.30;99.90;;;;;;5011235;28;20080;-74
2021/11/02 02:22:57;;;;;;;1.92;0.75;;;9.30;99.90;;;;;;5011800;28;20410;-74
2021/11/02 02:25:37;;;;;;;3.10;0.90;;;9.40;99.90;;;;;;5013058;28;20021;-74
2021/11/02 02:28:13;;;;;;;3.45;1.10;;;9.40;99.90;;;;;;5012896;28;20026;-74
2021/11/02 02:31:05;;;;;;;2.10;1.00;;;9.30;99.90;;;;;;5010946;28;20018;-74
2021/11/02 02:33:41;;;;;;;2.28;0.80;;;9.30;99.90;;;;;;5027601;28;20030;-74
2021/11/02 02:36:08;;;;;;;3.72;1.00;;;9.40;99.90;;;;;;5012580;28;20109;-73
2021/11/02 02:38:38;;;;;;;2.72;0.73;;;9.40;99.90;;;;;;5012322;28;20048;-73
2021/11/02 02:41:03;;;;;;;3.50;1.10;;;9.30;99.90;;;;;;5027986;28;20375;-73
2021/11/02 02:43:33;;;;;;;1.85;0.50;;;9.40;99.90;;;;;;5012208;28;20018;-74
2021/11/02 02:46:00;;;;;;;2.20;0.85;;;9.30;99.90;;;;;;5027956;28;20018;-73
2021/11/02 02:48:29;;;;;;;4.25;1.20;;;9.40;99.90;;;;;;5027881;28;20022;-73
2021/11/02 02:50:57;;;;;;;1.45;0.70;;;9.40;99.90;;;;;;5027877;28;20026;-73
2021/11/02 02:53:24;;;;;;;1.30;0.77;;;9.40;99.90;;;;;;5014219;28;20335;-74
2021/11/02 02:55:53;;;;;;;1.73;0.80;;;9.40;99.90;;;;;;5031075;28;20038;-73
2021/11/02 02:58:19;;;;;;;4.70;0.77;;;9.40;99.90;;;;;;5016253;28;20080;-74
2021/11/02 03:00:47;;;;;;;4.72;1.02;;;9.40;99.90;;;;;;5031146;28;20117;-74
2021/11/02 03:03:14;;;;;;;2.70;0.85;;;9.40;99.90;;;;;;5016234;28;20362;-74
2021/11/02 03:05:40;;;;;;;1.98;0.90;;;9.40;99.90;;;;;;5015687;28;20021;-74
2021/11/02 03:08:07;;;;;;;2.05;0.85;;;9.40;99.90;;;;;;5031601;28;20022;-74
2021/11/02 03:10:33;;;;;;;2.13;0.98;;;9.40;99.90;;;;;;5030875;28;20021;-74
2021/11/02 03:13:07;;;;;;;4.80;1.25;;;9.40;99.90;;;;;;5015957;28;20026;-74
2021/11/02 03:18:13;;;;;;;3.10;1.00;;;9.40;99.90;;;;;;5016004;28;20018;-73
2021/11/02 03:56:37;;;;;;;3.90;1.05;;;9.50;99.90;;;;;;5015676;28;20133;-73
2021/11/02 04:43:37;;;;;;;5.15;0.80;;;9.30;99.90;;;;;;5013656;28;20037;-74
2021/11/02 05:48:48;;;;;;;5.72;1.00;;;8.60;99.90;;;;;;5013401;28;20485;-74
2021/11/02 05:56:51;;;;;;;3.58;1.05;;;8.50;99.90;;;;;;5012572;28;20080;-75
2021/11/02 05:59:33;;;;;;;1.20;0.60;;;8.40;99.90;;;;;;5027917;28;20054;-74
2021/11/02 06:29:26;;;;;;;2.97;1.00;;;8.10;99.90;;;;;;5016839;28;20492;-76
2021/11/02 06:32:06;;;;;;;3.65;1.30;;;8.10;99.90;;;;;;5031436;28;20056;-76
2021/11/02 06:34:57;;;;;;;3.53;1.00;;;8.10;99.90;;;;;;5032212;28;20030;-76
2021/11/02 06:46:09;;;;;;;3.95;1.00;;;8.20;99.90;;;;;;5013613;28;20139;-75
2021/11/02 06:49:03;;;;;;;1.55;0.80;;;8.20;99.90;;;;;;5002415;28;20037;-75
2021/11/02 06:57:31;;;;;;;1.83;1.10;;;8.30;99.90;;;;;;5012500;28;20053;-76
2021/11/02 08:48:55;;;;;;;3.28;1.10;;;9.60;99.90;;;;;;5010582;28;20041;-76
2021/11/02 08:51:21;;;;;;;6.30;2.60;;;9.50;99.90;;;;;;5010012;28;20030;-76
2021/11/02 08:53:49;;;;;;;1.77;0.75;;;9.60;99.90;;;;;;5009082;28;20055;-76
2021/11/02 08:56:15;;;;;;;2.28;1.42;;;9.60;99.90;;;;;;5008954;28;20033;-76
2021/11/02 08:58:46;;;;;;;3.20;0.98;;;9.70;99.90;;;;;;5009970;28;20060;-75
2021/11/02 09:01:11;;;;;;;2.47;1.00;;;9.70;99.90;;;;;;5003929;28;20025;-75
2021/11/02 09:03:46;;;;;;;3.03;0.90;;;9.80;99.90;;;;;;5009632;28;20034;-75
2021/11/02 09:06:15;;;;;;;3.08;0.88;;;9.90;99.90;;;;;;4995667;28;20026;-76
2021/11/02 09:08:48;;;;;;;1.90;1.13;;;9.80;99.90;;;;;;5009199;28;20030;-75
2021/11/02 09:11:15;;;;;;;6.78;1.20;;;9.80;99.90;;;;;;5009451;28;20032;-75
2021/11/02 09:13:48;;;;;;;2.05;0.95;;;9.80;99.90;;;;;;5009284;28;20085;-75
2021/11/02 09:16:15;;;;;;;5.47;1.27;;;9.80;99.90;;;;;;5009427;28;20133;-76
2021/11/02 09:18:46;;;;;;;2.78;1.23;;;9.70;99.90;;;;;;5009319;28;20395;-76
2021/11/02 09:21:12;;;;;;;6.85;1.45;;;9.80;99.90;;;;;;5010310;28;20414;-76
2021/11/02 09:23:50;;;;;;;1.60;1.02;;;9.80;99.90;;;;;;5025257;28;20475;-76
2021/11/02 09:26:20;;;;;;;2.80;0.93;;;9.80;99.90;;;;;;5008772;28;20112;-76
2021/11/02 09:28:46;;;;;;;3.85;1.40;;;9.90;99.90;;;;;;5033733;28;20045;-76
2021/11/02 09:31:13;;;;;;;2.60;1.48;;;9.90;99.90;;;;;;5010156;28;20144;-77
2021/11/02 09:33:39;;;;;;;6.47;1.73;;;9.90;99.90;;;;;;5009380;28;20075;-77
2021/11/02 09:36:11;;;;;;;2.05;1.52;;;9.90;99.90;;;;;;5010156;28;20096;-76
2021/11/02 09:38:46;;;;;;;3.05;1.70;;;9.90;99.90;;;;;;5009635;28;20450;-76
2021/11/02 09:41:43;;;;;;;2.92;1.40;;;9.90;99.90;;;;;;5009785;28;20033;-77
2021/11/02 09:44:38;;;;;;;2.95;1.40;;;9.90;99.90;;;;;;5007862;28;20385;-75
2021/11/02 09:47:06;;;;;;;4.05;1.23;;;9.90;99.90;;;;;;5006913;28;20506;-76
2021/11/02 09:49:51;;;;;;;2.20;0.75;;;9.90;99.90;;;;;;5025801;28;20118;-77
2021/11/02 09:52:28;;;;;;;3.70;0.90;;;9.80;99.90;;;;;;5009056;28;20495;-77
2021/11/02 09:55:12;;;;;;;3.80;1.15;;;9.80;99.90;;;;;;5008322;28;20029;-77
2021/11/02 09:58:12;;;;;;;3.38;1.10;;;9.80;99.90;;;;;;5009851;28;20045;-77
2021/11/02 10:00:49;;;;;;;2.95;1.00;;;9.80;99.90;;;;;;5008997;28;20487;-77
2021/11/02 10:03:52;;;;;;;4.78;1.30;;;9.90;99.90;;;;;;5010540;28;20069;-77
2021/11/02 10:06:54;;;;;;;3.97;1.33;;;9.90;99.90;;;;;;4995059;28;20029;-77
2021/11/02 10:09:28;;;;;;;;;;;9.80;99.90;;;;;;4989271;28;20034;-77
2021/11/02 10:12:03;;;;;;;2.75;1.15;;;9.90;99.90;;;;;;4991509;28;19909;-77
2021/11/02 10:14:42;;;;;;;2.22;1.10;;;9.80;99.90;;;;;;5009185;28;20107;-77
2021/11/02 10:17:45;;;;;;;5.00;1.38;;;9.80;99.90;;;;;;5010131;28;20383;-77
2021/11/02 10:20:40;;;;;;;3.28;1.10;;;9.70;99.90;;;;;;4995502;28;20390;-77
2021/11/02 10:23:24;;;;;;;2.17;0.68;;;9.80;99.90;;;;;;4987809;28;20037;-77
2021/11/02 10:26:27;;;;;;;1.83;0.57;;;9.90;99.90;;;;;;5010463;28;20665;-77
2021/11/02 10:29:46;;;;;;;3.63;0.50;;;10.00;99.90;;;;;;5008192;28;20337;-78
2021/11/02 10:32:14;;;;;;;2.10;0.73;;;10.00;99.90;;;;;;5004431;28;20076;-77
2021/11/02 10:34:44;;;;;;;0.85;0.47;;;10.00;99.90;;;;;;5008941;28;20109;-77
2021/11/02 10:37:20;;;;;;;6.45;1.35;;;9.90;99.90;;;;;;5008615;28;20024;-78
2021/11/02 10:39:48;;;;;;;2.63;0.75;;;9.90;99.90;;;;;;5010330;28;20057;-77
2021/11/02 10:42:26;;;;;;;0.90;0.80;;;9.90;99.90;;;;;;5008807;28;20025;-77
2021/11/02 10:44:54;;;;;;;1.33;0.50;;;9.90;99.90;;;;;;5009569;28;20033;-78
2021/11/02 10:47:24;;;;;;;4.20;0.68;;;10.00;99.90;;;;;;5008578;28;20080;-77
2021/11/02 10:50:03;;;;;;;2.40;0.50;;;10.00;99.90;;;;;;5024420;28;20096;-77
2021/11/02 10:52:32;;;;;;;1.95;0.75;;;10.10;99.90;;;;;;5010158;28;20163;-78
2021/11/02 10:55:04;;;;;;;2.05;0.77;;;10.20;99.90;;;;;;5008238;28;20087;-77
2021/11/02 10:57:37;;;;;;;1.50;0.80;;;10.10;99.90;;;;;;5010293;28;20038;-77
2021/11/02 11:00:10;;;;;;;1.45;1.00;;;10.10;99.90;;;;;;5007596;28;20045;-77
2021/11/02 11:02:37;;;;;;;3.22;1.05;;;10.20;99.90;;;;;;5009807;28;20112;-77
2021/11/02 11:05:06;;;;;;;2.80;0.90;;;10.20;99.90;;;;;;5009604;28;20033;-77
2021/11/02 11:07:40;;;;;;;2.92;1.08;;;10.20;99.90;;;;;;5007695;28;20403;-77
2021/11/02 11:10:09;;;;;;;1.40;0.55;;;10.20;99.90;;;;;;5007808;28;20112;-77
2021/11/02 11:12:55;;;;;;;4.97;0.50;;;10.30;99.90;;;;;;5009000;28;20434;-76
2021/11/02 11:15:25;;;;;;;1.42;0.75;;;10.30;99.90;;;;;;5011105;28;20030;-76
2021/11/02 11:18:01;;;;;;;2.28;0.60;;;10.20;99.90;;;;;;5011163;28;20018;-78
2021/11/02 11:20:27;;;;;;;2.17;0.63;;;10.30;99.90;;;;;;5012439;28;20022;-78
2021/11/02 11:22:53;;;;;;;1.63;0.60;;;10.20;99.90;;;;;;5012133;28;20026;-77
2021/11/02 11:26:00;;;;;;;1.55;0.57;;;10.20;99.90;;;;;;5013294;28;20030;-77
2021/11/02 11:28:33;;;;;;;1.13;0.40;;;10.30;99.90;;;;;;5008880;28;20387;-77
2021/11/02 11:30:59;;;;;;;1.05;0.50;;;10.30;99.90;;;;;;5009463;28;20041;-77
2021/11/02 11:33:29;;;;;;;2.58;0.70;;;10.40;99.90;;;;;;5023487;28;20376;-77
2021/11/02 11:36:03;;;;;;;2.25;0.40;;;10.50;99.90;;;;;;5012303;28;20033;-77
2021/11/02 11:38:43;;;;;;;1.25;0.40;;;10.60;99.90;;;;;;5011358;28;20034;-77
2021/11/02 11:41:11;;;;;;;0.63;0.32;;;10.60;99.90;;;;;;5012621;28;20018;-77
2021/11/02 11:43:41;;;;;;;1.08;0.40;;;10.60;99.90;;;;;;5008340;28;20026;-77
2021/11/02 11:46:06;;;;;;;0.77;0.40;;;10.60;99.90;;;;;;5011754;28;20032;-77
2021/11/02 11:48:38;;;;;;;1.08;0.40;;;10.50;99.90;;;;;;5011999;28;20101;-76
2021/11/02 11:51:04;;;;;;;0.68;0.50;;;10.60;99.90;;;;;;5026795;28;20068;-77
2021/11/02 11:53:35;;;;;;;1.00;0.57;;;10.50;99.90;;;;;;5010716;28;20034;-77
2021/11/02 11:56:11;;;;;;;0.43;0.30;;;10.60;99.90;;;;;;5009376;28;20552;-77
2021/11/02 11:58:57;;;;;;;3.83;0.40;;;10.70;99.90;;;;;;5010388;28;20042;-77
2021/11/02 12:01:40;;;;;;;1.00;0.32;;;10.90;99.90;;;;;;5010221;28;20030;-76
2021/11/02 12:04:50;;;;;;;0.50;0.32;;;11.20;99.90;;;;;;5023085;28;20079;-77
2021/11/02 12:07:35;;;;;;;4.68;0.50;;;11.40;99.90;;;;;;5010828;28;20042;-76
2021/11/02 12:10:09;;;;;;;1.48;0.57;;;11.40;99.90;;;;;;5010256;28;20026;-75
2021/11/02 12:12:36;;;;;;;1.63;0.55;;;11.40;99.60;;;;;;5012452;28;20028;-77
2021/11/02 12:15:09;;;;;;;2.22;0.50;;;11.40;99.90;;;;;;5012040;28;20521;-77
2021/11/02 12:17:41;;;;;;;2.67;0.47;;;11.40;99.80;;;;;;5011348;28;20538;-76
2021/11/02 12:20:11;;;;;;;2.70;1.02;;;11.30;99.90;;;;;;5011309;28;20030;-76
2021/11/02 12:22:48;;;;;;;0.55;0.30;;;11.20;99.60;;;;;;4994313;28;20041;-77
2021/11/02 12:25:20;;;;;;;1.63;0.22;;;11.20;99.00;;;;;;5011405;28;20026;-76
2021/11/02 12:27:46;;;;;;;1.08;0.65;;;11.20;99.00;;;;;;5010386;28;20070;-77
2021/11/02 12:30:18;;;;;;;1.35;0.40;;;11.40;99.30;;;;;;5010538;28;20053;-77
2021/11/02 12:32:55;;;;;;;1.23;0.52;;;11.40;99.70;;;;;;5012248;28;20037;-77
2021/11/02 12:35:30;;;;;;;0.60;0.45;;;11.60;99.40;;;;;;5006703;28;20459;-77
2021/11/02 12:38:01;;;;;;;0.60;0.50;;;11.60;99.20;;;;;;5005626;28;20394;-77
2021/11/02 12:40:36;;;;;;;1.55;0.50;;;11.70;99.20;;;;;;5011210;28;20485;-77
2021/11/02 12:43:02;;;;;;;0.55;0.30;;;12.00;98.90;;;;;;5009686;28;20048;-77
2021/11/02 12:45:35;;;;;;;0.93;0.52;;;11.90;99.00;;;;;;5011320;28;20439;-77
2021/11/02 12:48:06;;;;;;;0.75;0.47;;;11.80;98.60;;;;;;5009541;28;20018;-77
2021/11/02 12:50:36;;;;;;;0.90;0.40;;;11.70;98.80;;;;;;5009942;28;20033;-75
2021/11/02 12:53:03;;;;;;;1.27;0.45;;;11.60;99.20;;;;;;5010727;28;20367;-76
2021/11/02 12:55:30;;;;;;;0.77;0.50;;;11.60;98.90;;;;;;5011027;28;20352;-77
2021/11/02 12:58:11;;;;;;;1.38;0.50;;;11.70;99.30;;;;;;5008454;28;20502;-77
2021/11/02 13:00:52;;;;;;;0.90;0.35;;;11.80;99.30;;;;;;4989820;28;20056;-77
2021/11/02 13:03:21;;;;;;;0.85;0.40;;;11.70;98.60;;;;;;4991529;28;20105;-75
2021/11/02 13:05:59;;;;;;;0.50;0.25;;;11.70;98.60;;;;;;4990576;28;20415;-77
2021/11/02 13:08:54;;;;;;;1.27;0.40;;;11.60;98.90;;;;;;4988658;28;20034;-75
2021/11/02 13:11:25;;;;;;;1.38;0.40;;;11.50;99.00;;;;;;4983702;28;20559;-76
2021/11/02 13:13:59;;;;;;;2.33;0.40;;;11.50;99.50;;;;;;4988833;28;20400;-76
2021/11/02 13:16:26;;;;;;;0.55;0.30;;;11.70;99.30;;;;;;4989988;28;20049;-76
2021/11/02 13:18:52;;;;;;;0.70;0.40;;;12.70;97.30;;;;;;4988048;28;20029;-76
2021/11/02 13:21:28;;;;;;;0.25;0.20;;;13.30;96.00;;;;;;4988963;28;20022;-76
2021/11/02 13:24:14;;;;;;;3.13;0.20;;;13.30;95.20;;;;;;4988118;28;20030;-77
2021/11/02 13:26:45;;;;;;;0.50;0.30;;;13.20;95.10;;;;;;4988783;28;20030;-77
2021/11/02 13:29:14;;;;;;;0.80;0.30;;;13.20;95.20;;;;;;4989447;28;20104;-77
2021/11/02 13:31:42;;;;;;;0.82;0.20;;;13.00;94.90;;;;;;4990174;28;20356;-78
2021/11/02 13:34:31;;;;;;;0.30;0.20;;;12.90;95.10;;;;;;4988703;28;20034;-78
2021/11/02 13:37:01;;;;;;;0.80;0.32;;;12.80;95.60;;;;;;5003222;28;20113;-78
2021/11/02 13:39:29;;;;;;;0.45;0.17;;;12.70;95.50;;;;;;4989435;28;20559;-78
2021/11/02 13:41:55;;;;;;;0.40;0.20;;;12.40;96.20;;;;;;4988365;28;20129;-77
2021/11/02 13:44:21;;;;;;;0.50;0.20;;;12.20;96.40;;;;;;4989820;28;20030;-77
2021/11/02 13:46:55;;;;;;;0.20;0.20;;;12.20;96.80;;;;;;4989617;28;20022;-75
2021/11/02 13:49:21;;;;;;;1.20;0.20;;;12.30;96.90;;;;;;4989262;28;20014;-76
2021/11/02 13:51:50;;;;;;;1.10;0.20;;;12.10;96.60;;;;;;4989332;28;20352;-76
2021/11/02 13:54:16;;;;;;;0.40;0.20;;;12.10;97.10;;;;;;4989675;28;20038;-76
2021/11/02 13:56:44;;;;;;;0.88;0.30;;;12.10;97.10;;;;;;4988794;28;20029;-77
2021/11/02 13:59:11;;;;;;;0.30;0.20;;;11.90;96.60;;;;;;4997506;28;20683;-76
2021/11/02 14:01:45;;;;;;;1.23;0.20;;;11.80;96.80;;;;;;5008971;28;20037;-77
2021/11/02 14:04:19;;;;;;;0.35;0.22;;;11.70;96.90;;;;;;5006937;28;20025;-76
2021/11/02 14:06:51;;;;;;;0.63;0.13;;;11.70;97.10;;;;;;5025483;28;20631;-77
2021/11/02 14:09:25;;;;;;;0.60;0.40;;;11.60;97.20;;;;;;5008468;28;20014;-76
2021/11/02 14:11:51;;;;;;;0.50;0.20;;;11.60;97.50;;;;;;5005710;28;20042;-77
2021/11/02 14:14:36;;;;;;;0.85;0.30;;;11.60;97.90;;;;;;5008992;28;20128;-77
2021/11/02 14:17:21;;;;;;;1.13;0.60;;;11.60;98.40;;;;;;5008888;28;20038;-76
2021/11/02 14:19:48;;;;;;;1.20;0.30;;;11.60;98.80;;;;;;5006365;28;20033;-76
2021/11/02 14:22:35;;;;;;;1.15;0.40;;;11.40;98.20;;;;;;5009358;28;20578;-76
2021/11/02 14:25:22;;;;;;;0.50;0.10;;;11.20;99.20;;;;;;5024431;28;20775;-75
2021/11/02 14:27:50;;;;;;;0.32;0.20;;;10.80;99.90;;;;;;5025086;28;20121;-76
2021/11/02 14:30:39;;;;;;;1.45;0.20;;;10.70;99.90;;;;;;5007700;28;20033;-76
2021/11/02 14:33:06;;;;;;;0.60;0.10;;;10.50;99.90;;;;;;5003371;28;20172;-78
2021/11/02 14:35:48;;;;;;;0.43;0.17;;;10.40;99.90;;;;;;5007172;28;20042;-78
2021/11/02 14:38:43;;;;;;;1.48;0.20;;;10.30;99.90;;;;;;5007390;28;20022;-75
2021/11/02 14:41:34;;;;;;;0.60;0.10;;;10.30;99.90;;;;;;5008457;28;20185;-78
2021/11/02 14:44:18;;;;;;;0.47;0.20;;;10.30;99.90;;;;;;5007126;28;20018;-77
2021/11/02 14:46:44;;;;;;;1.05;0.20;;;10.30;99.90;;;;;;5009011;28;20022;-78
2021/11/02 14:49:30;;;;;;;1.80;0.30;;;10.30;99.90;;;;;;5010124;28;20344;-77
2021/11/02 14:52:00;;;;;;;0.98;0.15;;;10.20;99.90;;;;;;5010701;28;20116;-76
2021/11/02 14:54:30;;;;;;;0.82;0.20;;;10.20;99.90;;;;;;5011425;28;20029;-77
2021/11/02 14:56:57;;;;;;;0.57;0.35;;;9.90;99.90;;;;;;5011817;28;20366;-77
2021/11/02 14:59:43;;;;;;;0.75;0.20;;;9.90;99.90;;;;;;5009852;28;20049;-79
2021/11/02 15:02:15;;;;;;;2.15;0.40;;;9.70;99.90;;;;;;5021049;28;20037;-76
2021/11/02 15:04:42;;;;;;;1.65;0.30;;;9.70;99.90;;;;;;5025268;28;20474;-77
2021/11/02 15:07:08;;;;;;;1.30;0.20;;;9.70;99.90;;;;;;5005593;28;20033;-77
2021/11/02 15:09:37;;;;;;;1.55;0.20;;;9.70;99.90;;;;;;5027478;28;20026;-78
2021/11/02 15:12:04;;;;;;;0.22;0.10;;;9.70;99.90;;;;;;5010130;28;20030;-76
2021/11/02 15:14:36;;;;;;;1.70;0.35;;;9.70;99.90;;;;;;5012595;28;20038;-76
2021/11/02 15:17:08;;;;;;;0.40;0.20;;;9.70;99.90;;;;;;5010292;28;20021;-76
2021/11/02 15:19:36;;;;;;;0.20;0.10;;;9.70;99.90;;;;;;5011020;28;20391;-76
2021/11/02 15:22:08;;;;;;;0.28;0.10;;;9.60;99.90;;;;;;5021906;28;20069;-77
2021/11/02 15:24:52;;;;;;;0.05;0.00;;;9.60;99.90;;;;;;5010825;28;20025;-76
2021/11/02 15:27:28;;;;;;;0.15;0.10;;;9.60;99.90;;;;;;4998909;28;20026;-75
2021/11/02 15:30:04;;;;;;;0.70;0.20;;;9.60;99.90;;;;;;5010809;28;20028;-76
2021/11/02 15:32:42;;;;;;;0.30;0.10;;;9.60;99.90;;;;;;5013045;28;20116;-77
2021/11/02 15:35:17;;;;;;;0.20;0.17;;;9.60;99.90;;;;;;5014778;28;20038;-77
2021/11/02 15:37:48;;;;;;;1.00;0.15;;;9.60;99.90;;;;;;5009301;28;20029;-77
2021/11/02 15:40:18;;;;;;;2.15;0.30;;;9.60;99.90;;;;;;5010480;28;20022;-77
2021/11/02 15:42:46;;;;;;;0.28;0.20;;;9.60;99.90;;;;;;5026760;28;20502;-77
2021/11/02 15:45:29;;;;;;;1.00;0.30;;;9.60;99.90;;;;;;5006786;28;20026;-77
2021/11/02 15:48:01;;;;;;;0.50;0.20;;;9.60;99.90;;;;;;5007193;28;20105;-77
2021/11/02 15:50:27;;;;;;;;;;;9.50;99.90;;;;;;5010661;28;20061;-75
2021/11/02 15:53:00;;;;;;;0.38;0.20;;;9.40;99.90;;;;;;5011090;28;20322;-78
2021/11/02 15:55:27;;;;;;;0.45;0.20;;;9.40;99.90;;;;;;5011632;28;20308;-77
2021/11/02 15:57:54;;;;;;;2.60;0.32;;;9.40;99.90;;;;;;5009742;28;20109;-76
2021/11/02 16:00:40;;;;;;;0.40;0.20;;;9.40;99.90;;;;;;5009086;28;20549;-77
2021/11/02 16:03:13;;;;;;;2.58;0.30;;;9.50;99.90;;;;;;4996980;28;20383;-77
2021/11/02 16:05:42;;;;;;;3.28;0.30;;;9.40;99.90;;;;;;5010256;28;20022;-76
2021/11/02 16:08:16;;;;;;;1.05;0.50;;;9.40;99.90;;;;;;5011737;28;20026;-77
2021/11/02 16:10:43;;;;;;;3.30;1.65;;;9.40;99.90;;;;;;5009514;28;20076;-77
2021/11/02 16:13:10;;;;;;;1.70;0.30;;;9.40;99.90;;;;;;5010385;28;20066;-76
2021/11/02 16:15:38;;;;;;;0.40;0.28;;;9.40;99.90;;;;;;5009719;28;20080;-77
2021/11/02 16:18:05;;;;;;;0.20;0.20;;;9.50;99.90;;;;;;5009960;28;20022;-77
2021/11/02 16:20:39;;;;;;;0.68;0.20;;;9.50;99.90;;;;;;5011379;28;20531;-78
2021/11/02 16:23:14;;;;;;;0.35;0.10;;;9.50;99.90;;;;;;5009342;28;20041;-78
2021/11/02 16:25:43;;;;;;;0.10;0.10;;;9.50;99.90;;;;;;5011236;28;20422;-78
2021/11/02 16:28:21;;;;;;;0.70;0.20;;;9.50;99.90;;;;;;5009945;28;20131;-78
2021/11/02 16:30:54;;;;;;;0.55;0.20;;;9.50;99.90;;;;;;4993621;28;20030;-77
2021/11/02 16:33:30;;;;;;;0.70;0.30;;;9.50;99.90;;;;;;5010287;28;20030;-77
2021/11/02 16:35:56;;;;;;;0.50;0.25;;;9.50;99.90;;;;;;5024987;28;20128;-77
2021/11/02 16:38:24;;;;;;;0.30;0.20;;;9.50;99.90;;;;;;5019345;28;20440;-77
2021/11/02 16:41:20;;;;;;;0.20;0.20;;;9.60;99.90;;;;;;5009488;28;20595;-77
2021/11/02 16:43:53;;;;;;;0.85;0.30;;;9.50;99.90;;;;;;5017600;28;20136;-77
2021/11/02 16:46:29;;;;;;;0.63;0.40;;;9.50;99.90;;;;;;5010877;28;20110;-77
2021/11/02 16:49:09;;;;;;;0.60;0.40;;;9.50;99.90;;;;;;5009100;28;20085;-77
2021/11/02 16:52:00;;;;;;;1.80;0.77;;;9.50;99.90;;;;;;5009996;28;20041;-80
2021/11/02 16:54:29;;;;;;;1.48;0.40;;;9.50;99.90;;;;;;5007561;28;20570;-79
2021/11/02 16:56:58;;;;;;;0.82;0.50;;;9.50;99.90;;;;;;5009160;28;20029;-78
2021/11/02 16:59:42;;;;;;;0.73;0.60;;;9.50;99.90;;;;;;5024159;28;20049;-80
2021/11/02 17:02:17;;;;;;;2.25;0.82;;;9.60;99.90;;;;;;5007011;28;20049;-78
2021/11/02 17:05:06;;;;;;;0.80;0.65;;;9.60;99.90;;;;;;5008802;28;20054;-77
2021/11/02 17:07:47;;;;;;;0.85;0.50;;;9.60;99.90;;;;;;5008791;28;20141;-77
2021/11/02 17:10:26;;;;;;;1.10;0.30;;;9.60;99.90;;;;;;5020339;28;20332;-76
2021/11/02 17:12:57;;;;;;;0.55;0.40;;;9.70;99.90;;;;;;5022230;28;20061;-75
2021/11/02 17:15:28;;;;;;;2.25;0.60;;;9.70;99.90;;;;;;5008531;28;20406;-77
2021/11/02 17:17:56;;;;;;;6.28;0.95;;;9.70;99.90;;;;;;5008627;28;20100;-77
2021/11/02 17:20:22;;;;;;;2.42;0.40;;;9.60;99.90;;;;;;5008793;28;20030;-78
2021/11/02 17:22:49;;;;;;;1.40;0.70;;;9.70;99.90;;;;;;5008631;28;20033;-78
2021/11/02 17:25:16;;;;;;;3.78;2.05;;;9.60;99.90;;;;;;5008635;28;20029;-77
2021/11/02 17:27:43;;;;;;;2.35;1.63;;;9.70;99.90;;;;;;5010760;28;20025;-77
2021/11/02 17:30:22;;;;;;;2.60;1.45;;;9.70;99.90;;;;;;5011083;28;20028;-77
2021/11/02 17:32:48;;;;;;;2.00;1.38;;;9.70;99.90;;;;;;4995260;28;20021;-77
2021/11/02 17:35:16;;;;;;;4.30;2.00;;;9.70;99.90;;;;;;5010694;28;20032;-78
2021/11/02 17:37:47;;;;;;;6.30;2.10;;;9.60;99.90;;;;;;5012476;28;20096;-77
2021/11/02 17:40:15;;;;;;;3.42;2.10;;;9.60;99.90;;;;;;5010919;28;20414;-76
2021/11/02 17:42:45;;;;;;;3.72;2.70;;;9.60;99.90;;;;;;5011072;28;20037;-77
2021/11/02 17:45:13;;;;;;;3.08;2.38;;;9.60;99.90;;;;;;5010959;28;20029;-78
2021/11/02 17:47:47;;;;;;;2.53;1.90;;;9.60;99.90;;;;;;5011290;28;20037;-78
2021/11/02 17:50:14;;;;;;;4.43;1.50;;;9.60;99.90;;;;;;5011948;28;20022;-78
2021/11/02 17:52:41;;;;;;;1.73;1.25;;;9.60;99.90;;;;;;5011124;28;20034;-78
2021/11/02 17:55:09;;;;;;;2.35;1.35;;;9.60;99.90;;;;;;5010799;28;20036;-78
2021/11/02 17:57:47;;;;;;;3.08;1.33;;;9.60;99.90;;;;;;5010665;28;20084;-78
2021/11/02 18:00:16;;;;;;;5.68;1.42;;;9.50;99.90;;;;;;5010273;28;20045;-78
2021/11/02 18:02:42;;;;;;;3.72;1.30;;;9.50;99.90;;;;;;5011192;28;20443;-74
2021/11/02 18:05:09;;;;;;;1.88;1.20;;;9.60;99.90;;;;;;5010268;28;20091;-75
2021/11/02 18:07:35;;;;;;;2.35;1.20;;;9.60;99.90;;;;;;5010739;28;20080;-75
2021/11/02 18:10:03;;;;;;;1.38;0.93;;;9.60;99.90;;;;;;5010478;28;20117;-77
2021/11/02 18:12:30;;;;;;;3.03;1.80;;;9.60;99.90;;;;;;5012170;28;20022;-76
2021/11/02 18:15:00;;;;;;;8.07;4.60;;;9.70;99.90;;;;;;5010390;28;20032;-77
2021/11/02 18:17:28;;;;;;;4.20;2.78;;;9.70;99.90;;;;;;5003636;28;20026;-77
2021/11/02 18:19:56;;;;;;;3.88;1.83;;;9.70;99.90;;;;;;5007003;28;20451;-77
2021/11/02 18:22:23;;;;;;;2.40;1.30;;;9.70;99.90;;;;;;5009326;28;20028;-77
2021/11/02 18:24:53;;;;;;;1.70;1.02;;;9.70;99.90;;;;;;5011643;28;20374;-76
2021/11/02 18:27:21;;;;;;;3.38;1.40;;;9.70;99.90;;;;;;5009259;28;20029;-76